Terminal Aerodrome Forecast
Issued by NWS

Current Version | Previous Version | Text Only | Print | Product List | Glossary On
Versions: 1 2 3 4 5 6 7 8 9 10 11 12 13
000
FTUS43 KMQT 021126
TAFSAW
TAF
KSAW 021126Z 0212/0312 30009KT P6SM SCT035
     FM030000 18006KT P6SM SCT250
     FM030600 19007KT P6SM OVC120
     FM031100 20007KT 6SM -SN OVC040=

USA.gov is the U.S. government's official web portal to all federal, state and local government web resources and services.